createdAt,value
2023-02-19T00:03:15.011Z,100149.41
2023-02-19T00:10:14.516Z,100155.44
2023-02-19T00:17:09.296Z,100156.31
2023-02-19T00:24:03.980Z,100155.44
2023-02-19T00:30:58.688Z,100161.50
2023-02-19T00:37:50.355Z,100162.34
2023-02-19T00:44:41.019Z,100167.53
2023-02-19T00:51:34.298Z,100170.13
2023-02-19T00:58:28.952Z,100178.78
2023-02-19T01:05:23.039Z,100167.53
2023-02-19T01:12:18.696Z,100164.91
2023-02-19T01:19:11.447Z,100153.63
2023-02-19T01:26:09.102Z,100151.00
2023-02-19T01:33:01.729Z,100158.81
2023-02-19T01:39:56.400Z,100171.84
2023-02-19T01:46:48.170Z,100178.78
2023-02-19T01:53:46.823Z,100161.44
2023-02-19T02:00:37.495Z,100170.13
2023-02-19T02:07:47.214Z,100173.63
2023-02-19T02:14:45.496Z,100175.31
2023-02-19T02:22:17.894Z,100158.88
2023-02-19T02:30:00.621Z,100169.25
2023-02-19T02:36:59.325Z,100178.81
2023-02-19T02:43:53.897Z,100159.72
2023-02-19T02:51:29.881Z,100154.56
2023-02-19T02:58:29.309Z,100149.38
2023-02-19T03:05:42.311Z,100151.97
2023-02-19T03:12:53.595Z,100168.44
2023-02-19T03:19:52.728Z,100172.81
2023-02-19T03:26:44.188Z,100170.19
2023-02-19T03:33:37.124Z,100174.56
2023-02-19T03:40:31.800Z,100170.22
2023-02-19T03:47:35.510Z,100170.22
2023-02-19T03:54:43.185Z,100174.56
2023-02-19T04:01:35.660Z,100165.91
2023-02-19T04:08:26.616Z,100165.03
2023-02-19T04:15:26.872Z,100152.88
2023-02-19T04:22:28.056Z,100152.88
2023-02-19T04:29:19.671Z,100151.16
2023-02-19T04:36:14.372Z,100143.34
2023-02-19T04:43:12.019Z,100137.28
2023-02-19T04:50:09.503Z,100125.97
2023-02-19T04:57:01.404Z,100122.47
2023-02-19T05:03:54.079Z,100121.63
2023-02-19T05:10:45.435Z,100109.47
2023-02-19T05:17:41.399Z,100113.78
2023-02-19T05:24:34.715Z,100117.28
2023-02-19T05:31:29.998Z,100127.69
2023-02-19T05:38:20.483Z,100127.66
2023-02-19T05:45:38.024Z,100138.06
2023-02-19T05:52:31.901Z,100144.13
2023-02-19T05:59:29.206Z,100146.75
2023-02-19T06:06:24.143Z,100161.47
2023-02-19T06:13:20.951Z,100158.84
2023-02-19T06:20:15.686Z,100173.59
2023-02-19T06:27:12.351Z,100177.06
2023-02-19T06:34:08.091Z,100185.72
2023-02-19T06:41:06.844Z,100187.47
2023-02-19T06:48:00.486Z,100188.34
2023-02-19T06:54:55.743Z,100196.16
2023-02-19T07:01:48.816Z,100203.97
2023-02-19T07:08:45.535Z,100211.81
2023-02-19T07:15:37.228Z,100229.19
2023-02-19T07:22:31.834Z,100246.56
2023-02-19T07:29:22.410Z,100237.03
2023-02-19T07:36:19.797Z,100246.63
2023-02-19T07:43:12.849Z,100253.59
2023-02-19T07:50:06.170Z,100276.16
2023-02-19T07:57:00.766Z,100278.78
2023-02-19T08:03:54.931Z,100278.81
2023-02-19T08:11:06.232Z,100295.28
2023-02-19T08:18:03.317Z,100298.78
2023-02-19T08:24:58.998Z,100293.56
2023-02-19T08:31:51.747Z,100311.81
2023-02-19T08:38:43.427Z,100300.56
2023-02-19T08:45:35.042Z,100310.13
2023-02-19T08:52:31.716Z,100316.22
2023-02-19T08:59:27.399Z,100325.78
2023-02-19T09:06:26.786Z,100324.06
2023-02-19T09:13:19.883Z,100347.50
2023-02-19T09:20:14.516Z,100357.06
2023-02-19T09:27:09.192Z,100353.59
2023-02-19T09:34:06.451Z,100364.03
2023-02-19T09:40:57.513Z,100369.25
2023-02-19T09:47:50.248Z,100375.31
2023-02-19T09:54:44.871Z,100383.16
2023-02-19T10:01:45.329Z,100393.59
2023-02-19T10:08:42.083Z,100401.41
2023-02-19T10:15:44.602Z,100397.91
2023-02-19T10:22:39.727Z,100413.53
2023-02-19T10:29:32.260Z,100411.75
2023-02-19T10:36:46.649Z,100405.59
2023-02-19T10:43:42.079Z,100427.34
2023-02-19T10:50:45.789Z,100425.56
2023-02-19T10:57:40.298Z,100432.56
2023-02-19T11:04:36.724Z,100443.03
2023-02-19T11:11:45.221Z,100440.41
2023-02-19T11:18:52.741Z,100444.69
2023-02-19T11:25:54.288Z,100460.22
2023-02-19T11:32:54.862Z,100453.03
2023-02-19T11:39:53.522Z,100469.50
2023-02-19T11:47:03.290Z,100478.34
2023-02-19T11:54:22.059Z,100477.53
2023-02-19T12:01:49.724Z,100472.13
2023-02-19T12:09:30.765Z,100472.91
2023-02-19T12:17:20.632Z,100491.38
2023-02-19T12:24:46.448Z,100500.94
2023-02-19T12:32:15.186Z,100521.84
2023-02-19T12:39:36.183Z,100530.50
2023-02-19T12:47:00.932Z,100523.41
2023-02-19T12:54:11.706Z,100519.75
2023-02-19T13:01:02.389Z,100535.34
2023-02-19T13:08:12.131Z,100539.66
2023-02-19T13:15:35.923Z,100533.47
2023-02-19T13:22:57.768Z,100554.38
2023-02-19T13:30:04.485Z,100549.16
2023-02-19T13:37:00.201Z,100569.28
2023-02-19T13:43:58.892Z,100564.28
2023-02-19T13:50:50.109Z,100572.28
2023-02-19T13:57:45.169Z,100575.97
2023-02-19T14:04:57.508Z,100596.06
2023-02-19T14:11:48.589Z,100615.25
2023-02-19T14:18:51.313Z,100619.66
2023-02-19T14:26:07.682Z,100631.03
2023-02-19T14:33:10.284Z,100633.72
2023-02-19T14:40:03.481Z,100637.25
2023-02-19T14:47:19.280Z,100639.81
2023-02-19T14:54:52.115Z,100646.84
2023-02-19T15:01:45.888Z,100653.81
2023-02-19T15:08:51.359Z,100675.56
2023-02-19T15:15:48.275Z,100689.44
2023-02-19T15:22:41.864Z,100696.38
2023-02-19T15:29:33.625Z,100706.75
2023-02-19T15:36:36.633Z,100711.03
2023-02-19T15:43:50.730Z,100724.78
2023-02-19T15:50:46.443Z,100737.69
2023-02-19T15:57:46.175Z,100749.72
2023-02-19T16:04:40.262Z,100755.66
2023-02-19T16:11:34.925Z,100764.25
2023-02-19T16:18:26.587Z,100761.47
2023-02-19T16:25:31.896Z,100769.13
2023-02-19T16:32:26.668Z,100785.47
2023-02-19T16:39:24.746Z,100803.56
2023-02-19T16:46:16.369Z,100819.03
2023-02-19T16:53:21.104Z,100814.56
2023-02-19T17:00:20.800Z,100830.97
2023-02-19T17:07:18.512Z,100825.69
2023-02-19T17:14:11.829Z,100824.75
2023-02-19T17:21:29.010Z,100824.63
2023-02-19T17:28:24.677Z,100818.38
2023-02-19T17:35:20.994Z,100824.41
2023-02-19T17:42:15.090Z,100828.63
2023-02-19T17:49:07.900Z,100839.81
2023-02-19T17:56:05.396Z,100830.22
2023-02-19T18:02:57.684Z,100832.72
2023-02-19T18:09:50.371Z,100838.66
2023-02-19T18:16:50.925Z,100834.28
2023-02-19T18:23:41.337Z,100848.00
2023-02-19T18:30:36.919Z,100850.59
2023-02-19T18:37:30.502Z,100850.50
2023-02-19T18:44:31.833Z,100832.28
2023-02-19T18:51:25.878Z,100838.25
2023-02-19T18:58:18.624Z,100814.84
2023-02-19T19:05:12.239Z,100826.97
2023-02-19T19:12:06.427Z,100823.53
2023-02-19T19:18:56.223Z,100825.25
2023-02-19T19:25:52.302Z,100802.78
2023-02-19T19:32:45.196Z,100805.38
2023-02-19T19:39:38.649Z,100803.66
2023-02-19T19:46:34.208Z,100797.56
2023-02-19T19:53:30.050Z,100814.91
2023-02-19T20:00:23.797Z,100809.75
2023-02-19T20:07:13.017Z,100801.97
2023-02-19T20:14:14.175Z,100812.44
2023-02-19T20:21:07.884Z,100795.22
2023-02-19T20:28:04.583Z,100802.19
2023-02-19T20:42:54.543Z,100789.28
2023-02-19T20:49:37.334Z,100774.56
2023-02-19T20:56:19.636Z,100775.47
2023-02-19T21:03:02.135Z,100767.75
2023-02-19T21:09:44.749Z,100780.00
2023-02-19T21:16:32.062Z,100772.31
2023-02-19T21:23:14.752Z,100767.22
2023-02-19T21:29:57.128Z,100770.72
2023-02-19T21:36:39.861Z,100763.88
2023-02-19T21:43:22.164Z,100780.47
2023-02-19T21:50:05.424Z,100791.91
2023-02-19T21:56:48.819Z,100779.97
2023-02-19T22:03:31.469Z,100776.72
2023-02-19T22:10:15.421Z,100775.19
2023-02-19T22:16:57.744Z,100776.13
2023-02-19T22:23:42.874Z,100776.16
2023-02-19T22:30:25.108Z,100792.66
2023-02-19T22:37:07.799Z,100797.00
2023-02-19T22:43:50.883Z,100797.00
2023-02-19T22:50:33.459Z,100797.84
2023-02-19T22:57:15.971Z,100800.41
2023-02-19T23:04:01.244Z,100796.03
2023-02-19T23:10:43.724Z,100806.44
2023-02-19T23:17:26.182Z,100792.50
2023-02-19T23:24:09.465Z,100787.28
2023-02-19T23:30:52.002Z,100790.75
2023-02-19T23:37:34.690Z,100788.13
2023-02-19T23:44:18.156Z,100794.25
2023-02-19T23:51:00.404Z,100796.88
2023-02-19T23:57:45.596Z,100796.09
